createdAt,value
2019-01-23T00:00:47.244Z,-0.30
2019-01-23T00:03:18.920Z,-0.32
2019-01-23T00:05:50.647Z,-0.32
2019-01-23T00:08:22.368Z,-0.31
2019-01-23T00:10:54.042Z,-0.31
2019-01-23T00:13:26.170Z,-0.31
2019-01-23T00:15:58.190Z,-0.32
2019-01-23T00:18:29.910Z,-0.33
2019-01-23T00:21:01.586Z,-0.34
2019-01-23T00:23:33.301Z,-0.35
2019-01-23T00:26:04.985Z,-0.37
2019-01-23T00:28:42.204Z,-0.38
2019-01-23T00:31:10.110Z,-0.38
2019-01-23T00:33:41.812Z,-0.38
2019-01-23T00:36:13.498Z,-0.39
2019-01-23T00:38:45.243Z,-0.39
2019-01-23T00:41:16.983Z,-0.40
2019-01-23T00:43:48.661Z,-0.43
2019-01-23T00:46:20.386Z,-0.45
2019-01-23T00:48:52.371Z,-0.47
2019-01-23T00:51:24.053Z,-0.50
2019-01-23T00:53:56.428Z,-0.52
2019-01-23T00:56:28.144Z,-0.52
2019-01-23T00:58:59.870Z,-0.53
2019-01-23T01:01:31.609Z,-0.56
2019-01-23T01:04:03.327Z,-0.59
2019-01-23T01:06:35.052Z,-0.57
2019-01-23T01:09:09.367Z,-0.56
2019-01-23T01:11:41.076Z,-0.56
2019-01-23T01:14:12.766Z,-0.54
2019-01-23T01:16:44.521Z,-0.54
2019-01-23T01:19:16.188Z,-0.54
2019-01-23T01:21:47.882Z,-0.54
2019-01-23T01:24:19.627Z,-0.57
2019-01-23T01:26:51.305Z,-0.58
2019-01-23T01:29:23.119Z,-0.59
2019-01-23T01:31:54.795Z,-0.60
2019-01-23T01:34:26.523Z,-0.61
2019-01-23T01:36:58.243Z,-0.61
2019-01-23T01:39:30.099Z,-0.62
2019-01-23T01:42:01.881Z,-0.64
2019-01-23T01:44:33.619Z,-0.64
2019-01-23T01:47:05.349Z,-0.64
2019-01-23T01:49:37.023Z,-0.64
2019-01-23T01:52:09.134Z,-0.65
2019-01-23T01:54:41.197Z,-0.66
2019-01-23T01:57:13.399Z,-0.68
2019-01-23T01:59:45.185Z,-0.68
2019-01-23T02:02:16.860Z,-0.68
2019-01-23T02:04:48.608Z,-0.72
2019-01-23T02:07:20.309Z,-0.71
2019-01-23T02:09:52.057Z,-0.73
2019-01-23T02:12:23.763Z,-0.72
2019-01-23T02:14:55.466Z,-0.73
2019-01-23T02:17:27.191Z,-0.76
2019-01-23T02:19:58.904Z,-0.78
2019-01-23T02:22:30.632Z,-0.79
2019-01-23T02:25:02.384Z,-0.79
2019-01-23T02:27:34.383Z,-0.79
2019-01-23T02:30:11.273Z,-0.78
2019-01-23T02:32:42.956Z,-0.77
2019-01-23T02:35:14.656Z,-0.79
2019-01-23T02:37:46.357Z,-0.77
2019-01-23T02:40:20.598Z,-0.79
2019-01-23T02:42:52.304Z,-0.81
2019-01-23T02:45:24.852Z,-0.82
2019-01-23T02:47:56.550Z,-0.81
2019-01-23T02:50:28.241Z,-0.80
2019-01-23T02:52:59.966Z,-0.80
2019-01-23T02:55:31.659Z,-0.82
2019-01-23T02:58:03.399Z,-0.82
2019-01-23T03:00:35.400Z,-0.83
2019-01-23T03:03:07.132Z,-0.84
2019-01-23T03:05:38.843Z,-0.85
2019-01-23T03:08:10.630Z,-0.86
2019-01-23T03:10:42.353Z,-0.86
2019-01-23T03:13:14.070Z,-0.88
2019-01-23T03:15:45.746Z,-0.90
2019-01-23T03:18:17.493Z,-0.90
2019-01-23T03:20:49.169Z,-0.94
2019-01-23T03:23:20.913Z,-0.95
2019-01-23T03:25:52.617Z,-0.96
2019-01-23T03:28:24.351Z,-0.97
2019-01-23T03:30:56.067Z,-0.98
2019-01-23T03:33:27.823Z,-1.00
2019-01-23T03:35:59.543Z,-1.01
2019-01-23T03:38:31.245Z,-1.05
2019-01-23T03:41:21.184Z,-1.10
2019-01-23T03:43:52.925Z,-1.16
2019-01-23T03:46:24.600Z,-1.18
2019-01-23T03:48:56.351Z,-1.22
2019-01-23T03:51:28.047Z,-1.24
2019-01-23T03:53:59.731Z,-1.25
2019-01-23T03:56:31.417Z,-1.26
2019-01-23T03:59:03.151Z,-1.27
2019-01-23T04:01:34.873Z,-1.28
2019-01-23T04:04:06.586Z,-1.27
2019-01-23T04:06:38.278Z,-1.29
2019-01-23T04:09:09.986Z,-1.32
2019-01-23T04:11:41.737Z,-1.32
2019-01-23T04:14:13.423Z,-1.34
2019-01-23T04:16:45.402Z,-1.35
2019-01-23T04:19:17.094Z,-1.36
2019-01-23T04:21:49.070Z,-1.38
2019-01-23T04:24:20.762Z,-1.42
2019-01-23T04:26:52.466Z,-1.45
2019-01-23T04:29:24.185Z,-1.47
2019-01-23T04:31:55.891Z,-1.48
2019-01-23T04:34:27.591Z,-1.50
2019-01-23T04:36:59.297Z,-1.54
2019-01-23T04:39:30.987Z,-1.57
2019-01-23T04:42:02.682Z,-1.57
2019-01-23T04:44:34.742Z,-1.60
2019-01-23T04:47:06.465Z,-1.61
2019-01-23T04:49:38.163Z,-1.61
2019-01-23T04:52:11.499Z,-1.60
2019-01-23T04:54:43.212Z,-1.59
2019-01-23T04:57:14.903Z,-1.57
2019-01-23T04:59:47.072Z,-1.59
2019-01-23T05:02:18.996Z,-1.59
2019-01-23T05:04:50.699Z,-1.62
2019-01-23T05:07:22.763Z,-1.65
2019-01-23T05:09:54.810Z,-1.64
2019-01-23T05:12:26.492Z,-1.64
2019-01-23T05:14:58.215Z,-1.64
2019-01-23T05:17:30.185Z,-1.66
2019-01-23T05:20:01.884Z,-1.66
2019-01-23T05:22:33.904Z,-1.66
2019-01-23T05:25:07.413Z,-1.65
2019-01-23T05:27:39.855Z,-1.62
2019-01-23T05:30:21.121Z,-1.62
2019-01-23T05:32:52.821Z,-1.59
2019-01-23T05:35:24.511Z,-1.60
2019-01-23T05:37:56.225Z,-1.61
2019-01-23T05:40:27.914Z,-1.62
2019-01-23T05:43:00.063Z,-1.60
2019-01-23T05:45:31.756Z,-1.61
2019-01-23T05:48:03.529Z,-1.61
2019-01-23T05:50:35.230Z,-1.61
2019-01-23T05:53:06.925Z,-1.60
2019-01-23T05:55:38.648Z,-1.56
2019-01-23T05:58:10.349Z,-1.53
2019-01-23T06:00:42.056Z,-1.52
2019-01-23T06:03:13.835Z,-1.49
2019-01-23T06:05:45.543Z,-1.45
2019-01-23T06:08:17.234Z,-1.46
2019-01-23T06:10:48.934Z,-1.47
2019-01-23T06:13:20.670Z,-1.43
2019-01-23T06:15:52.353Z,-1.40
2019-01-23T06:18:24.375Z,-1.39
2019-01-23T06:20:56.073Z,-1.36
2019-01-23T06:23:27.830Z,-1.35
2019-01-23T06:25:59.561Z,-1.34
2019-01-23T06:28:31.255Z,-1.29
2019-01-23T06:31:02.954Z,-1.24
2019-01-23T06:33:34.658Z,-1.23
2019-01-23T06:36:06.378Z,-1.21
2019-01-23T06:38:38.456Z,-1.22
2019-01-23T06:41:10.192Z,-1.23
2019-01-23T06:43:41.892Z,-1.24
2019-01-23T06:46:13.980Z,-1.24
2019-01-23T06:48:45.669Z,-1.24
2019-01-23T06:51:17.393Z,-1.23
2019-01-23T06:53:49.092Z,-1.22
2019-01-23T06:56:20.784Z,-1.26
2019-01-23T06:58:52.492Z,-1.29
2019-01-23T07:01:24.199Z,-1.33
2019-01-23T07:03:55.903Z,-1.36
2019-01-23T07:06:27.634Z,-1.38
2019-01-23T07:08:59.354Z,-1.42
2019-01-23T07:11:31.063Z,-1.44
2019-01-23T07:14:02.751Z,-1.44
2019-01-23T07:16:34.440Z,-1.47
2019-01-23T07:19:06.301Z,-1.50
2019-01-23T07:21:37.994Z,-1.51
2019-01-23T07:24:09.709Z,-1.54
2019-01-23T07:26:41.440Z,-1.57
2019-01-23T07:29:13.173Z,-1.58
2019-01-23T07:31:44.882Z,-1.57
2019-01-23T07:34:16.638Z,-1.59
2019-01-23T07:36:48.738Z,-1.57
2019-01-23T07:39:20.436Z,-1.60
2019-01-23T07:41:52.418Z,-1.57
2019-01-23T07:44:24.124Z,-1.58
2019-01-23T07:46:55.829Z,-1.62
2019-01-23T07:49:27.523Z,-1.62
2019-01-23T07:51:59.510Z,-1.60
2019-01-23T07:54:31.243Z,-1.57
2019-01-23T07:57:02.961Z,-1.52
2019-01-23T07:59:34.694Z,-1.50
2019-01-23T08:02:06.381Z,-1.46
2019-01-23T08:04:38.085Z,-1.46
2019-01-23T08:07:09.815Z,-1.43
2019-01-23T08:09:42.450Z,-1.42
2019-01-23T08:12:14.178Z,-1.42
2019-01-23T08:14:46.201Z,-1.41
2019-01-23T08:17:17.907Z,-1.42
2019-01-23T08:19:49.667Z,-1.46
2019-01-23T08:22:21.403Z,-1.49
2019-01-23T08:24:53.087Z,-1.51
2019-01-23T08:27:24.797Z,-1.51
2019-01-23T08:29:56.577Z,-1.50
2019-01-23T08:32:28.286Z,-1.50
2019-01-23T08:34:59.991Z,-1.50
2019-01-23T08:37:31.702Z,-1.47
2019-01-23T08:40:05.565Z,-1.43
2019-01-23T08:42:37.369Z,-1.41
2019-01-23T08:45:11.891Z,-1.38
2019-01-23T08:47:43.573Z,-1.34
2019-01-23T08:50:25.105Z,-1.30
2019-01-23T08:52:56.804Z,-1.27
2019-01-23T08:55:28.513Z,-1.25
2019-01-23T08:58:00.252Z,-1.23
2019-01-23T09:00:32.044Z,-1.19
2019-01-23T09:03:03.751Z,-1.16
2019-01-23T09:05:35.469Z,-1.15
2019-01-23T09:08:07.159Z,-1.12
2019-01-23T09:10:38.878Z,-1.12
2019-01-23T09:13:10.564Z,-1.08
2019-01-23T09:15:42.268Z,-1.06
2019-01-23T09:18:16.916Z,-1.02
2019-01-23T09:20:47.763Z,-1.00
2019-01-23T09:23:19.451Z,-1.01
2019-01-23T09:25:51.668Z,-0.97
2019-01-23T09:28:23.646Z,-0.95
2019-01-23T09:31:09.208Z,-0.96
2019-01-23T09:33:48.460Z,-0.94
2019-01-23T09:36:53.882Z,-0.91
2019-01-23T09:39:33.409Z,-0.89
2019-01-23T09:42:22.102Z,-0.85
2019-01-23T09:45:36.471Z,-0.82
2019-01-23T09:48:21.982Z,-0.80
2019-01-23T09:51:13.164Z,-0.77
2019-01-23T09:53:50.114Z,-0.76
2019-01-23T09:56:22.361Z,-0.75
2019-01-23T09:58:54.299Z,-0.72
2019-01-23T10:01:26.018Z,-0.68
2019-01-23T10:03:57.839Z,-0.65
2019-01-23T10:06:29.529Z,-0.62
2019-01-23T10:09:01.257Z,-0.59
2019-01-23T10:11:32.946Z,-0.55
2019-01-23T10:14:05.440Z,-0.51
2019-01-23T10:16:38.796Z,-0.48
2019-01-23T10:19:10.526Z,-0.46
2019-01-23T10:21:42.337Z,-0.42
2019-01-23T10:24:14.393Z,-0.39
2019-01-23T10:26:46.483Z,-0.38
2019-01-23T10:29:18.525Z,-0.37
2019-01-23T10:31:50.223Z,-0.39
2019-01-23T10:34:21.912Z,-0.37
2019-01-23T10:36:53.613Z,-0.32
2019-01-23T10:39:25.299Z,-0.30
2019-01-23T10:41:57.018Z,-0.28
2019-01-23T10:44:28.714Z,-0.26
2019-01-23T10:47:00.443Z,-0.23
2019-01-23T10:49:32.132Z,-0.20
2019-01-23T10:52:03.848Z,-0.17
2019-01-23T10:54:35.543Z,-0.12
2019-01-23T10:57:07.523Z,-0.10
2019-01-23T10:59:39.216Z,-0.09
2019-01-23T11:02:10.919Z,-0.09
2019-01-23T11:04:42.621Z,-0.08
2019-01-23T11:07:15.387Z,-0.07
2019-01-23T11:09:47.103Z,-0.04
2019-01-23T11:12:18.876Z,-0.04
2019-01-23T11:14:50.569Z,-0.04
2019-01-23T11:17:22.283Z,-0.03
2019-01-23T11:19:53.969Z,0.00
2019-01-23T11:22:25.673Z,0.03
2019-01-23T11:24:57.383Z,0.05
2019-01-23T11:27:29.080Z,0.09
2019-01-23T11:30:00.787Z,0.10
2019-01-23T11:32:32.746Z,0.13
2019-01-23T11:35:06.609Z,0.15
2019-01-23T11:37:38.289Z,0.17
2019-01-23T11:40:23.227Z,0.20
2019-01-23T11:42:54.912Z,0.19
2019-01-23T11:45:26.682Z,0.21
2019-01-23T11:47:58.382Z,0.21
2019-01-23T11:50:30.065Z,0.23
2019-01-23T11:53:02.031Z,0.21
2019-01-23T11:55:33.715Z,0.17
2019-01-23T11:58:05.641Z,0.17
2019-01-23T12:00:37.315Z,0.17
2019-01-23T12:03:09.028Z,0.19
2019-01-23T12:05:40.709Z,0.22
2019-01-23T12:08:12.401Z,0.23
2019-01-23T12:10:44.134Z,0.24
2019-01-23T12:13:15.849Z,0.27
2019-01-23T12:15:47.583Z,0.28
2019-01-23T12:18:19.277Z,0.30
2019-01-23T12:20:50.977Z,0.32
2019-01-23T12:23:22.747Z,0.34
2019-01-23T12:25:55.369Z,0.33
2019-01-23T12:28:27.056Z,0.32
2019-01-23T12:30:59.186Z,0.33
2019-01-23T12:33:30.876Z,0.35
2019-01-23T12:36:02.575Z,0.36
2019-01-23T12:38:34.617Z,0.35
2019-01-23T12:41:06.403Z,0.33
2019-01-23T12:43:38.127Z,0.33
2019-01-23T12:46:09.880Z,0.33
2019-01-23T12:48:41.575Z,0.31
2019-01-23T12:51:13.340Z,0.31
2019-01-23T12:53:45.060Z,0.29
2019-01-23T12:56:16.766Z,0.27
2019-01-23T12:58:48.458Z,0.25
2019-01-23T13:01:20.503Z,0.24
2019-01-23T13:03:52.188Z,0.24
2019-01-23T13:06:23.911Z,0.22
2019-01-23T13:08:55.588Z,0.22
2019-01-23T13:11:27.334Z,0.21
2019-01-23T13:13:58.990Z,0.22
2019-01-23T13:16:30.793Z,0.22
2019-01-23T13:19:02.484Z,0.21
2019-01-23T13:21:34.202Z,0.19
2019-01-23T13:24:18.560Z,0.17
2019-01-23T13:26:50.259Z,0.15
2019-01-23T13:29:23.181Z,0.12
2019-01-23T13:31:55.186Z,0.11
2019-01-23T13:34:27.370Z,0.11
2019-01-23T13:37:00.312Z,0.09
2019-01-23T13:39:32.547Z,0.09
2019-01-23T13:42:04.892Z,0.09
2019-01-23T13:44:36.595Z,0.09
2019-01-23T13:47:08.596Z,0.08
2019-01-23T13:49:40.303Z,0.09
2019-01-23T13:52:11.987Z,0.09
2019-01-23T13:54:43.707Z,0.07
2019-01-23T13:57:15.725Z,0.06
2019-01-23T13:59:47.434Z,0.06
2019-01-23T14:02:19.110Z,0.08
2019-01-23T14:04:50.815Z,0.09
2019-01-23T14:07:22.506Z,0.08
2019-01-23T14:09:54.203Z,0.04
2019-01-23T14:12:25.995Z,0.00
2019-01-23T14:14:58.040Z,-0.04
2019-01-23T14:17:29.924Z,-0.04
2019-01-23T14:20:01.651Z,-0.06
2019-01-23T14:22:33.342Z,-0.09
2019-01-23T14:25:06.950Z,-0.10
2019-01-23T14:27:38.991Z,-0.10
2019-01-23T14:30:36.152Z,-0.12
2019-01-23T14:33:07.908Z,-0.16
2019-01-23T14:35:40.547Z,-0.18
2019-01-23T14:38:12.826Z,-0.20
2019-01-23T14:40:44.593Z,-0.23
2019-01-23T14:43:16.684Z,-0.27
2019-01-23T14:45:48.369Z,-0.29
2019-01-23T14:48:20.410Z,-0.30
2019-01-23T14:50:52.115Z,-0.33
2019-01-23T14:53:23.814Z,-0.35
2019-01-23T14:55:55.614Z,-0.39
2019-01-23T14:58:27.307Z,-0.42
2019-01-23T15:00:59.081Z,-0.44
2019-01-23T15:03:30.772Z,-0.46
2019-01-23T15:06:02.483Z,-0.48
2019-01-23T15:08:34.478Z,-0.49
2019-01-23T15:11:06.178Z,-0.53
2019-01-23T15:13:37.895Z,-0.56
2019-01-23T15:16:09.653Z,-0.58
2019-01-23T15:18:41.706Z,-0.61
2019-01-23T15:21:13.679Z,-0.64
2019-01-23T15:23:45.468Z,-0.68
2019-01-23T15:26:17.705Z,-0.70
2019-01-23T15:28:49.614Z,-0.71
2019-01-23T15:31:21.311Z,-0.73
2019-01-23T15:33:53.082Z,-0.77
2019-01-23T15:36:24.789Z,-0.78
2019-01-23T15:38:56.728Z,-0.80
2019-01-23T15:41:28.448Z,-0.83
2019-01-23T15:44:00.250Z,-0.85
2019-01-23T15:46:31.967Z,-0.86
2019-01-23T15:49:03.678Z,-0.90
2019-01-23T15:51:35.383Z,-0.92
2019-01-23T15:54:07.362Z,-0.93
2019-01-23T15:56:39.227Z,-0.96
2019-01-23T15:59:10.939Z,-0.97
2019-01-23T16:01:42.649Z,-0.99
2019-01-23T16:04:14.383Z,-1.00
2019-01-23T16:06:46.584Z,-1.01
2019-01-23T16:09:18.497Z,-1.03
2019-01-23T16:11:50.291Z,-1.03
2019-01-23T16:14:22.011Z,-1.04
2019-01-23T16:16:53.692Z,-1.05
2019-01-23T16:19:25.403Z,-1.07
2019-01-23T16:21:57.126Z,-1.07
2019-01-23T16:24:29.395Z,-1.09
2019-01-23T16:27:01.097Z,-1.19
2019-01-23T16:29:32.801Z,-1.14
2019-01-23T16:32:04.499Z,-1.16
2019-01-23T16:34:36.197Z,-1.16
2019-01-23T16:37:08.287Z,-1.19
2019-01-23T16:39:40.016Z,-1.21
2019-01-23T16:42:12.110Z,-1.22
2019-01-23T16:44:43.838Z,-1.23
2019-01-23T16:47:15.525Z,-1.26
2019-01-23T16:49:47.238Z,-1.26
2019-01-23T16:52:19.245Z,-1.27
2019-01-23T16:54:50.960Z,-1.30
2019-01-23T16:57:22.683Z,-1.31
2019-01-23T16:59:54.346Z,-1.35
2019-01-23T17:02:26.036Z,-1.36
2019-01-23T17:04:57.747Z,-1.37
2019-01-23T17:07:29.446Z,-1.41
2019-01-23T17:10:01.777Z,-1.43
2019-01-23T17:12:33.507Z,-1.45
2019-01-23T17:15:07.569Z,-1.47
2019-01-23T17:17:39.355Z,-1.53
2019-01-23T17:20:16.194Z,-1.59
2019-01-23T17:22:47.967Z,-1.64
2019-01-23T17:25:19.669Z,-1.69
2019-01-23T17:27:51.672Z,-1.74
2019-01-23T17:30:25.004Z,-1.81
2019-01-23T17:32:56.772Z,-1.85
2019-01-23T17:35:28.493Z,-1.87
2019-01-23T17:38:00.189Z,-1.87
2019-01-23T17:40:31.889Z,-1.86
2019-01-23T17:43:03.594Z,-1.86
2019-01-23T17:45:40.052Z,-1.86
2019-01-23T17:48:12.558Z,-1.86
2019-01-23T17:50:44.264Z,-1.84
2019-01-23T17:53:16.416Z,-1.83
2019-01-23T17:55:48.126Z,-1.83
2019-01-23T17:58:19.826Z,-1.82
2019-01-23T18:00:53.176Z,-1.80
2019-01-23T18:03:37.615Z,-1.80
2019-01-23T18:06:10.327Z,-1.82
2019-01-23T18:08:42.060Z,-1.80
2019-01-23T18:11:13.736Z,-1.75
2019-01-23T18:13:45.757Z,-1.70
2019-01-23T18:16:17.451Z,-1.70
2019-01-23T18:18:49.155Z,-1.69
2019-01-23T18:21:21.111Z,-1.67
2019-01-23T18:23:52.821Z,-1.64
2019-01-23T18:26:24.507Z,-1.65
2019-01-23T18:28:56.202Z,-1.64
2019-01-23T18:31:30.888Z,-1.64
2019-01-23T18:34:22.019Z,-1.63
2019-01-23T18:37:15.117Z,-1.61
2019-01-23T18:40:29.622Z,-1.58
2019-01-23T18:43:31.766Z,-1.58
2019-01-23T18:46:13.921Z,-1.57
2019-01-23T18:49:07.736Z,-1.53
2019-01-23T18:51:40.900Z,-1.54
2019-01-23T18:54:12.972Z,-1.50
2019-01-23T18:56:44.657Z,-1.48
2019-01-23T18:59:16.350Z,-1.49
2019-01-23T19:01:48.049Z,-1.50
2019-01-23T19:04:19.747Z,-1.51
2019-01-23T19:06:51.448Z,-1.50
2019-01-23T19:09:23.209Z,-1.49
2019-01-23T19:11:54.897Z,-1.47
2019-01-23T19:14:26.644Z,-1.47
2019-01-23T19:16:58.426Z,-1.46
2019-01-23T19:19:30.458Z,-1.44
2019-01-23T19:22:02.164Z,-1.43
2019-01-23T19:24:34.219Z,-1.44
2019-01-23T19:27:05.916Z,-1.43
2019-01-23T19:29:37.613Z,-1.41
2019-01-23T19:32:09.294Z,-1.44
2019-01-23T19:34:41.019Z,-1.47
2019-01-23T19:37:12.693Z,-1.47
2019-01-23T19:39:44.411Z,-1.45
2019-01-23T19:42:16.381Z,-1.43
2019-01-23T19:44:49.254Z,-1.41
2019-01-23T19:47:20.956Z,-1.40
2019-01-23T19:49:52.727Z,-1.41
2019-01-23T19:52:24.429Z,-1.43
2019-01-23T19:54:56.501Z,-1.46
2019-01-23T19:57:28.381Z,-1.47
2019-01-23T20:00:00.253Z,-1.48
2019-01-23T20:02:31.923Z,-1.47
2019-01-23T20:05:05.896Z,-1.46
2019-01-23T20:07:37.650Z,-1.44
2019-01-23T20:10:14.512Z,-1.46
2019-01-23T20:12:47.180Z,-1.44
2019-01-23T20:15:21.064Z,-1.43
2019-01-23T20:17:55.766Z,-1.44
2019-01-23T20:20:27.464Z,-1.43
2019-01-23T20:22:59.146Z,-1.41
2019-01-23T20:25:31.294Z,-1.42
2019-01-23T20:28:03.374Z,-1.39
2019-01-23T20:30:36.949Z,-1.40
2019-01-23T20:33:08.650Z,-1.42
2019-01-23T20:35:40.418Z,-1.45
2019-01-23T20:38:12.117Z,-1.44
2019-01-23T20:40:43.822Z,-1.43
2019-01-23T20:43:15.515Z,-1.43
2019-01-23T20:45:47.275Z,-1.47
2019-01-23T20:48:18.998Z,-1.50
2019-01-23T20:50:50.972Z,-1.49
2019-01-23T20:53:22.700Z,-1.50
2019-01-23T20:55:54.371Z,-1.51
2019-01-23T20:58:26.378Z,-1.50
2019-01-23T21:00:58.082Z,-1.51
2019-01-23T21:03:34.872Z,-1.51
2019-01-23T21:06:03.254Z,-1.51
2019-01-23T21:08:35.232Z,-1.52
2019-01-23T21:11:06.926Z,-1.57
2019-01-23T21:13:38.628Z,-1.59
2019-01-23T21:16:10.320Z,-1.59
2019-01-23T21:18:42.287Z,-1.56
2019-01-23T21:21:13.965Z,-1.53
2019-01-23T21:23:45.744Z,-1.51
2019-01-23T21:26:17.433Z,-1.49
2019-01-23T21:28:49.123Z,-1.47
2019-01-23T21:31:20.833Z,-1.44
2019-01-23T21:33:52.535Z,-1.42
2019-01-23T21:36:24.283Z,-1.42
2019-01-23T21:38:56.000Z,-1.43
2019-01-23T21:41:27.751Z,-1.39
2019-01-23T21:43:59.870Z,-1.40
2019-01-23T21:46:31.562Z,-1.41
2019-01-23T21:49:03.307Z,-1.46
2019-01-23T21:51:35.109Z,-1.49
2019-01-23T21:54:06.802Z,-1.50
2019-01-23T21:56:38.519Z,-1.50
2019-01-23T21:59:10.195Z,-1.53
2019-01-23T22:01:42.239Z,-1.55
2019-01-23T22:04:13.922Z,-1.57
2019-01-23T22:06:45.626Z,-1.61
2019-01-23T22:09:17.306Z,-1.62
2019-01-23T22:11:49.305Z,-1.64
2019-01-23T22:14:20.987Z,-1.63
2019-01-23T22:16:52.682Z,-1.65
2019-01-23T22:19:24.367Z,-1.65
2019-01-23T22:21:56.064Z,-1.66
2019-01-23T22:24:27.753Z,-1.67
2019-01-23T22:26:59.513Z,-1.67
2019-01-23T22:29:32.827Z,-1.64
2019-01-23T22:32:04.542Z,-1.62
2019-01-23T22:34:36.228Z,-1.57
2019-01-23T22:37:07.965Z,-1.53
2019-01-23T22:39:39.712Z,-1.52
2019-01-23T22:42:11.412Z,-1.53
2019-01-23T22:44:43.930Z,-1.53
2019-01-23T22:47:16.010Z,-1.52
2019-01-23T22:49:48.051Z,-1.51
2019-01-23T22:52:19.754Z,-1.48
2019-01-23T22:54:51.445Z,-1.47
2019-01-23T22:57:23.425Z,-1.49
2019-01-23T22:59:55.193Z,-1.50
2019-01-23T23:02:27.014Z,-1.48
2019-01-23T23:04:58.726Z,-1.46
2019-01-23T23:07:30.589Z,-1.45
2019-01-23T23:10:02.296Z,-1.43
2019-01-23T23:12:33.981Z,-1.40
2019-01-23T23:15:09.696Z,-1.39
2019-01-23T23:17:41.378Z,-1.41
2019-01-23T23:20:14.278Z,-1.41
2019-01-23T23:22:45.971Z,-1.40
2019-01-23T23:25:17.680Z,-1.40
2019-01-23T23:27:49.380Z,-1.41
2019-01-23T23:30:24.440Z,-1.45
2019-01-23T23:32:56.128Z,-1.47
2019-01-23T23:35:27.821Z,-1.46
2019-01-23T23:37:59.524Z,-1.48
2019-01-23T23:40:31.535Z,-1.51
2019-01-23T23:43:03.241Z,-1.52
2019-01-23T23:45:35.254Z,-1.54
2019-01-23T23:48:07.015Z,-1.57
2019-01-23T23:50:39.076Z,-1.54
2019-01-23T23:53:10.869Z,-1.55
2019-01-23T23:55:42.548Z,-1.53
2019-01-23T23:58:14.316Z,-1.51
